sensor_id;sensor_type;location;lat;lon;timestamp;noise_LAeq;noise_LA_min;noise_LA_max;noise_LA01;noise_LA95
66747;Laerm;53658;50.742;10.864;2023-03-20T00:01:27;38.42;28.67;46.76;;
66747;Laerm;53658;50.742;10.864;2023-03-20T00:03:55;38.51;33.44;44.76;;
66747;Laerm;53658;50.742;10.864;2023-03-20T00:06:27;38.44;33.44;42.09;;
66747;Laerm;53658;50.742;10.864;2023-03-20T00:08:54;38.44;32.93;41.46;;
66747;Laerm;53658;50.742;10.864;2023-03-20T00:11:28;38.26;32.35;43.09;;
66747;Laerm;53658;50.742;10.864;2023-03-20T00:14:04;38.21;32.93;41.89;;
66747;Laerm;53658;50.742;10.864;2023-03-20T00:16:34;38.25;31.68;43.39;;
66747;Laerm;53658;50.742;10.864;2023-03-20T00:19:00;38.11;30.89;41.82;;
66747;Laerm;53658;50.742;10.864;2023-03-20T00:21:28;38.04;31.68;45.69;;
66747;Laerm;53658;50.742;10.864;2023-03-20T00:23:54;38.08;32.93;42.47;;
66747;Laerm;53658;50.742;10.864;2023-03-20T00:26:30;38.09;32.35;41.75;;
66747;Laerm;53658;50.742;10.864;2023-03-20T00:28:57;39.14;32.93;68.10;;
66747;Laerm;53658;50.742;10.864;2023-03-20T00:31:25;38.09;32.35;47.48;;
66747;Laerm;53658;50.742;10.864;2023-03-20T00:33:54;38.00;32.93;48.43;;
66747;Laerm;53658;50.742;10.864;2023-03-20T00:36:21;38.05;33.44;42.03;;
66747;Laerm;53658;50.742;10.864;2023-03-20T00:38:47;40.70;32.93;56.73;;
66747;Laerm;53658;50.742;10.864;2023-03-20T00:41:34;38.16;31.68;42.09;;
66747;Laerm;53658;50.742;10.864;2023-03-20T00:44:22;38.09;32.35;41.38;;
66747;Laerm;53658;50.742;10.864;2023-03-20T00:47:10;38.22;33.44;41.68;;
66747;Laerm;53658;50.742;10.864;2023-03-20T00:49:37;38.22;32.35;43.24;;
66747;Laerm;53658;50.742;10.864;2023-03-20T00:52:05;38.50;32.93;42.22;;
66747;Laerm;53658;50.742;10.864;2023-03-20T00:54:31;39.01;33.44;67.48;;
66747;Laerm;53658;50.742;10.864;2023-03-20T00:57:16;38.18;32.93;42.53;;
66747;Laerm;53658;50.742;10.864;2023-03-20T01:00:18;38.15;32.93;41.61;;
66747;Laerm;53658;50.742;10.864;2023-03-20T01:02:38;38.89;33.09;66.11;;
66747;Laerm;53658;50.742;10.864;2023-03-20T01:05:04;38.80;34.31;42.76;;
66747;Laerm;53658;50.742;10.864;2023-03-20T01:07:31;38.87;34.69;42.03;;
66747;Laerm;53658;50.742;10.864;2023-03-20T01:09:57;38.63;32.93;45.89;;
66747;Laerm;53658;50.742;10.864;2023-03-20T01:12:23;38.18;32.93;43.81;;
66747;Laerm;53658;50.742;10.864;2023-03-20T01:14:54;38.20;33.90;42.35;;
66747;Laerm;53658;50.742;10.864;2023-03-20T01:17:23;38.23;31.68;49.59;;
66747;Laerm;53658;50.742;10.864;2023-03-20T01:19:50;38.32;32.93;41.89;;
66747;Laerm;53658;50.742;10.864;2023-03-20T01:22:17;38.17;33.44;42.98;;
66747;Laerm;53658;50.742;10.864;2023-03-20T01:24:43;38.17;32.93;43.19;;
66747;Laerm;53658;50.742;10.864;2023-03-20T01:27:18;38.03;33.44;43.63;;
66747;Laerm;53658;50.742;10.864;2023-03-20T01:29:44;37.96;32.93;41.81;;
66747;Laerm;53658;50.742;10.864;2023-03-20T01:32:18;37.99;32.93;42.88;;
66747;Laerm;53658;50.742;10.864;2023-03-20T01:34:47;37.97;31.68;42.88;;
66747;Laerm;53658;50.742;10.864;2023-03-20T01:37:21;37.91;32.93;43.99;;
66747;Laerm;53658;50.742;10.864;2023-03-20T01:39:48;37.96;32.35;42.30;;
66747;Laerm;53658;50.742;10.864;2023-03-20T01:42:15;37.88;32.35;41.75;;
66747;Laerm;53658;50.742;10.864;2023-03-20T01:44:43;37.81;32.93;42.59;;
66747;Laerm;53658;50.742;10.864;2023-03-20T01:47:19;37.75;32.35;43.49;;
66747;Laerm;53658;50.742;10.864;2023-03-20T01:50:22;37.78;32.35;44.15;;
66747;Laerm;53658;50.742;10.864;2023-03-20T01:53:04;37.83;32.93;41.68;;
66747;Laerm;53658;50.742;10.864;2023-03-20T01:55:39;37.82;32.35;43.29;;
66747;Laerm;53658;50.742;10.864;2023-03-20T01:58:14;37.84;32.93;42.09;;
66747;Laerm;53658;50.742;10.864;2023-03-20T02:00:42;37.77;32.35;42.35;;
66747;Laerm;53658;50.742;10.864;2023-03-20T02:03:14;37.77;33.44;41.61;;
66747;Laerm;53658;50.742;10.864;2023-03-20T02:06:00;37.64;32.93;44.27;;
66747;Laerm;53658;50.742;10.864;2023-03-20T02:08:46;37.73;30.89;45.07;;
66747;Laerm;53658;50.742;10.864;2023-03-20T02:11:14;37.78;32.93;42.03;;
66747;Laerm;53658;50.742;10.864;2023-03-20T02:13:42;37.76;33.44;43.81;;
66747;Laerm;53658;50.742;10.864;2023-03-20T02:16:16;37.80;31.68;40.98;;
66747;Laerm;53658;50.742;10.864;2023-03-20T02:19:00;37.75;31.68;43.63;;
66747;Laerm;53658;50.742;10.864;2023-03-20T02:39:21;37.67;31.68;44.62;;
66747;Laerm;53658;50.742;10.864;2023-03-20T02:42:10;37.75;32.35;42.93;;
66747;Laerm;53658;50.742;10.864;2023-03-20T02:45:05;37.86;32.35;47.12;;
66747;Laerm;53658;50.742;10.864;2023-03-20T03:02:06;37.76;32.35;43.04;;
66747;Laerm;53658;50.742;10.864;2023-03-20T03:04:43;37.74;32.93;45.04;;
66747;Laerm;53658;50.742;10.864;2023-03-20T03:07:19;37.72;31.68;48.23;;
66747;Laerm;53658;50.742;10.864;2023-03-20T03:09:52;37.69;29.92;44.31;;
66747;Laerm;53658;50.742;10.864;2023-03-20T03:12:32;37.72;32.93;43.90;;
66747;Laerm;53658;50.742;10.864;2023-03-20T03:15:04;38.44;32.35;45.66;;
66747;Laerm;53658;50.742;10.864;2023-03-20T03:17:36;38.21;31.68;46.82;;
66747;Laerm;53658;50.742;10.864;2023-03-20T03:20:11;38.32;32.93;43.44;;
66747;Laerm;53658;50.742;10.864;2023-03-20T03:22:40;38.26;31.68;43.24;;
66747;Laerm;53658;50.742;10.864;2023-03-20T03:25:09;38.43;32.35;44.19;;
66747;Laerm;53658;50.742;10.864;2023-03-20T03:27:41;38.50;32.35;43.90;;
66747;Laerm;53658;50.742;10.864;2023-03-20T03:30:20;38.37;32.35;42.93;;
66747;Laerm;53658;50.742;10.864;2023-03-20T03:33:01;38.41;31.68;44.35;;
66747;Laerm;53658;50.742;10.864;2023-03-20T03:35:32;38.24;30.89;43.49;;
66747;Laerm;53658;50.742;10.864;2023-03-20T03:38:38;37.85;32.35;45.20;;
66747;Laerm;53658;50.742;10.864;2023-03-20T03:43:45;37.84;32.93;42.29;;
66747;Laerm;53658;50.742;10.864;2023-03-20T03:49:03;37.87;31.68;42.82;;
66747;Laerm;53658;50.742;10.864;2023-03-20T03:51:34;37.84;32.35;43.14;;
66747;Laerm;53658;50.742;10.864;2023-03-20T03:54:12;37.93;32.35;43.63;;
66747;Laerm;53658;50.742;10.864;2023-03-20T03:56:44;37.86;32.35;43.77;;
66747;Laerm;53658;50.742;10.864;2023-03-20T03:59:27;37.93;32.35;45.93;;
66747;Laerm;53658;50.742;10.864;2023-03-20T04:01:56;37.81;32.35;46.45;;
66747;Laerm;53658;50.742;10.864;2023-03-20T04:04:25;37.87;32.35;45.11;;
66747;Laerm;53658;50.742;10.864;2023-03-20T04:06:52;37.79;31.68;44.97;;
66747;Laerm;53658;50.742;10.864;2023-03-20T04:09:18;37.81;31.68;44.11;;
66747;Laerm;53658;50.742;10.864;2023-03-20T04:11:49;37.91;30.89;46.45;;
66747;Laerm;53658;50.742;10.864;2023-03-20T04:14:15;37.91;31.68;45.63;;
66747;Laerm;53658;50.742;10.864;2023-03-20T04:16:42;37.91;32.35;46.02;;
66747;Laerm;53658;50.742;10.864;2023-03-20T04:19:08;37.80;32.93;45.23;;
66747;Laerm;53658;50.742;10.864;2023-03-20T04:21:34;37.97;29.92;46.84;;
66747;Laerm;53658;50.742;10.864;2023-03-20T04:24:00;37.86;32.35;45.30;;
66747;Laerm;53658;50.742;10.864;2023-03-20T04:26:26;37.82;32.93;44.69;;
66747;Laerm;53658;50.742;10.864;2023-03-20T04:28:52;37.81;32.35;44.43;;
66747;Laerm;53658;50.742;10.864;2023-03-20T04:31:21;37.86;32.93;46.59;;
66747;Laerm;53658;50.742;10.864;2023-03-20T04:34:07;37.80;32.35;42.35;;
66747;Laerm;53658;50.742;10.864;2023-03-20T04:37:02;37.71;31.68;43.90;;
66747;Laerm;53658;50.742;10.864;2023-03-20T04:39:42;37.72;32.35;43.19;;
66747;Laerm;53658;50.742;10.864;2023-03-20T04:42:09;37.76;32.93;42.03;;
66747;Laerm;53658;50.742;10.864;2023-03-20T04:44:35;37.93;32.35;42.53;;
66747;Laerm;53658;50.742;10.864;2023-03-20T04:47:01;37.86;30.89;43.58;;
66747;Laerm;53658;50.742;10.864;2023-03-20T04:49:47;37.83;32.93;43.44;;
66747;Laerm;53658;50.742;10.864;2023-03-20T04:52:13;37.84;30.89;42.88;;
66747;Laerm;53658;50.742;10.864;2023-03-20T04:54:42;37.73;31.68;42.09;;
66747;Laerm;53658;50.742;10.864;2023-03-20T04:57:08;37.82;32.35;40.98;;
66747;Laerm;53658;50.742;10.864;2023-03-20T04:59:35;37.80;31.68;41.53;;
66747;Laerm;53658;50.742;10.864;2023-03-20T05:02:01;37.83;30.89;41.53;;
66747;Laerm;53658;50.742;10.864;2023-03-20T05:04:26;37.75;32.35;41.96;;
66747;Laerm;53658;50.742;10.864;2023-03-20T05:06:53;37.80;32.00;42.93;;
66747;Laerm;53658;50.742;10.864;2023-03-20T05:09:22;37.78;32.35;42.59;;
66747;Laerm;53658;50.742;10.864;2023-03-20T05:11:50;37.82;31.68;42.88;;
66747;Laerm;53658;50.742;10.864;2023-03-20T05:14:54;37.78;32.58;41.30;;
66747;Laerm;53658;50.742;10.864;2023-03-20T05:17:41;37.81;32.35;43.44;;
66747;Laerm;53658;50.742;10.864;2023-03-20T05:20:11;37.78;31.68;42.03;;
66747;Laerm;53658;50.742;10.864;2023-03-20T05:23:00;37.77;32.35;41.38;;
66747;Laerm;53658;50.742;10.864;2023-03-20T05:25:49;37.81;31.33;41.14;;
66747;Laerm;53658;50.742;10.864;2023-03-20T05:28:48;38.03;30.89;41.38;;
66747;Laerm;53658;50.742;10.864;2023-03-20T05:31:50;38.60;32.58;50.01;;
66747;Laerm;53658;50.742;10.864;2023-03-20T05:34:36;37.95;31.68;42.65;;
66747;Laerm;53658;50.742;10.864;2023-03-20T05:37:02;37.80;32.35;41.61;;
66747;Laerm;53658;50.742;10.864;2023-03-20T05:39:51;37.75;32.93;41.14;;
66747;Laerm;53658;50.742;10.864;2023-03-20T05:42:35;37.70;32.35;41.68;;
66747;Laerm;53658;50.742;10.864;2023-03-20T05:45:20;37.88;32.35;40.89;;
66747;Laerm;53658;50.742;10.864;2023-03-20T05:48:11;37.82;32.35;46.89;;
66747;Laerm;53658;50.742;10.864;2023-03-20T05:50:40;38.05;31.68;46.07;;
66747;Laerm;53658;50.742;10.864;2023-03-20T05:53:06;38.31;33.44;44.94;;
66747;Laerm;53658;50.742;10.864;2023-03-20T05:55:50;38.30;32.93;42.22;;
66747;Laerm;53658;50.742;10.864;2023-03-20T05:58:39;38.19;32.93;41.46;;
66747;Laerm;53658;50.742;10.864;2023-03-20T06:01:27;38.19;32.93;41.14;;
66747;Laerm;53658;50.742;10.864;2023-03-20T06:03:52;37.93;33.09;41.14;;
66747;Laerm;53658;50.742;10.864;2023-03-20T06:06:38;37.98;32.93;44.11;;
66747;Laerm;53658;50.742;10.864;2023-03-20T06:09:04;37.84;33.44;40.89;;
66747;Laerm;53658;50.742;10.864;2023-03-20T06:11:30;38.04;31.68;42.93;;
66747;Laerm;53658;50.742;10.864;2023-03-20T06:13:57;38.04;32.35;41.46;;
66747;Laerm;53658;50.742;10.864;2023-03-20T06:16:31;38.09;32.93;43.39;;
66747;Laerm;53658;50.742;10.864;2023-03-20T06:18:57;38.08;32.93;43.99;;
66747;Laerm;53658;50.742;10.864;2023-03-20T06:21:24;38.06;32.93;41.75;;
66747;Laerm;53658;50.742;10.864;2023-03-20T06:23:52;38.08;32.35;45.91;;
66747;Laerm;53658;50.742;10.864;2023-03-20T06:26:21;38.15;32.93;42.82;;
66747;Laerm;53658;50.742;10.864;2023-03-20T06:28:58;38.20;30.89;41.75;;
66747;Laerm;53658;50.742;10.864;2023-03-20T06:31:24;38.29;33.44;42.35;;
66747;Laerm;53658;50.742;10.864;2023-03-20T06:33:50;38.21;32.93;41.61;;
66747;Laerm;53658;50.742;10.864;2023-03-20T06:36:18;38.25;32.93;41.96;;
66747;Laerm;53658;50.742;10.864;2023-03-20T06:38:44;38.05;33.44;41.82;;
66747;Laerm;53658;50.742;10.864;2023-03-20T06:41:14;38.05;32.35;41.14;;
66747;Laerm;53658;50.742;10.864;2023-03-20T06:43:40;38.16;32.35;41.14;;
66747;Laerm;53658;50.742;10.864;2023-03-20T06:46:08;38.24;31.68;41.89;;
66747;Laerm;53658;50.742;10.864;2023-03-20T06:48:35;38.39;33.44;43.77;;
66747;Laerm;53658;50.742;10.864;2023-03-20T06:51:04;38.46;33.90;43.14;;
66747;Laerm;53658;50.742;10.864;2023-03-20T06:53:36;40.55;32.35;72.82;;
66747;Laerm;53658;50.742;10.864;2023-03-20T06:56:14;38.87;32.93;50.79;;
66747;Laerm;53658;50.742;10.864;2023-03-20T06:58:41;38.54;34.31;49.25;;
66747;Laerm;53658;50.742;10.864;2023-03-20T07:01:08;39.80;33.90;56.92;;
66747;Laerm;53658;50.742;10.864;2023-03-20T07:03:35;39.05;33.90;48.07;;
66747;Laerm;53658;50.742;10.864;2023-03-20T07:06:01;39.48;35.36;46.78;;
66747;Laerm;53658;50.742;10.864;2023-03-20T07:08:28;49.29;34.31;84.97;;
66747;Laerm;53658;50.742;10.864;2023-03-20T07:11:13;40.13;35.94;49.81;;
66747;Laerm;53658;50.742;10.864;2023-03-20T07:13:40;40.19;35.94;51.60;;
66747;Laerm;53658;50.742;10.864;2023-03-20T07:16:17;39.97;32.93;49.36;;
66747;Laerm;53658;50.742;10.864;2023-03-20T07:18:43;39.86;35.04;51.57;;
66747;Laerm;53658;50.742;10.864;2023-03-20T07:21:16;39.81;35.31;53.90;;
66747;Laerm;53658;50.742;10.864;2023-03-20T07:23:43;39.50;32.35;47.00;;
66747;Laerm;53658;50.742;10.864;2023-03-20T07:26:09;39.58;33.90;50.69;;
66747;Laerm;53658;50.742;10.864;2023-03-20T07:28:35;39.14;33.90;50.58;;
66747;Laerm;53658;50.742;10.864;2023-03-20T07:31:22;38.97;33.44;51.85;;
66747;Laerm;53658;50.742;10.864;2023-03-20T07:33:55;39.27;32.93;47.91;;
66747;Laerm;53658;50.742;10.864;2023-03-20T07:36:21;39.48;34.31;49.79;;
66747;Laerm;53658;50.742;10.864;2023-03-20T07:38:48;39.61;34.31;51.17;;
66747;Laerm;53658;50.742;10.864;2023-03-20T07:41:14;39.72;35.66;51.15;;
66747;Laerm;53658;50.742;10.864;2023-03-20T07:43:45;39.89;35.36;58.96;;
66747;Laerm;53658;50.742;10.864;2023-03-20T07:46:33;39.93;34.69;44.07;;
66747;Laerm;53658;50.742;10.864;2023-03-20T07:49:00;39.70;33.90;53.33;;
66747;Laerm;53658;50.742;10.864;2023-03-20T07:51:26;39.38;35.04;49.10;;
66747;Laerm;53658;50.742;10.864;2023-03-20T07:53:52;39.39;33.90;50.22;;
66747;Laerm;53658;50.742;10.864;2023-03-20T07:56:19;39.17;32.93;57.86;;
66747;Laerm;53658;50.742;10.864;2023-03-20T07:58:45;39.04;33.90;47.26;;
66747;Laerm;53658;50.742;10.864;2023-03-20T08:01:11;39.03;32.93;47.26;;
66747;Laerm;53658;50.742;10.864;2023-03-20T08:03:37;39.09;33.44;48.29;;
66747;Laerm;53658;50.742;10.864;2023-03-20T08:06:04;39.10;33.90;50.43;;
66747;Laerm;53658;50.742;10.864;2023-03-20T08:08:32;39.03;34.31;51.28;;
66747;Laerm;53658;50.742;10.864;2023-03-20T08:10:58;38.87;34.69;49.13;;
66747;Laerm;53658;50.742;10.864;2023-03-20T08:13:24;39.06;34.31;44.07;;
66747;Laerm;53658;50.742;10.864;2023-03-20T08:15:49;38.93;33.90;46.40;;
66747;Laerm;53658;50.742;10.864;2023-03-20T08:18:16;38.97;35.04;44.62;;
66747;Laerm;53658;50.742;10.864;2023-03-20T08:20:42;39.20;35.04;43.86;;
66747;Laerm;53658;50.742;10.864;2023-03-20T08:23:08;39.63;35.36;51.44;;
66747;Laerm;53658;50.742;10.864;2023-03-20T08:25:33;39.59;35.31;44.76;;
66747;Laerm;53658;50.742;10.864;2023-03-20T08:28:00;39.77;35.66;45.66;;
66747;Laerm;53658;50.742;10.864;2023-03-20T08:30:26;39.94;35.04;45.33;;
66747;Laerm;53658;50.742;10.864;2023-03-20T08:32:52;39.97;35.66;45.51;;
66747;Laerm;53658;50.742;10.864;2023-03-20T08:35:18;40.01;35.36;49.38;;
66747;Laerm;53658;50.742;10.864;2023-03-20T08:37:44;39.67;35.04;47.40;;
66747;Laerm;53658;50.742;10.864;2023-03-20T08:40:11;39.59;34.69;50.57;;
66747;Laerm;53658;50.742;10.864;2023-03-20T08:42:37;39.86;34.69;48.18;;
66747;Laerm;53658;50.742;10.864;2023-03-20T08:45:03;40.23;36.20;44.39;;
66747;Laerm;53658;50.742;10.864;2023-03-20T08:47:29;40.01;37.12;47.14;;
66747;Laerm;53658;50.742;10.864;2023-03-20T08:49:55;39.81;36.91;44.19;;
66747;Laerm;53658;50.742;10.864;2023-03-20T08:52:20;39.78;36.91;47.02;;
66747;Laerm;53658;50.742;10.864;2023-03-20T08:54:46;39.58;36.77;42.35;;
66747;Laerm;53658;50.742;10.864;2023-03-20T08:57:12;39.43;36.69;42.03;;
66747;Laerm;53658;50.742;10.864;2023-03-20T08:59:40;39.34;36.69;43.54;;
66747;Laerm;53658;50.742;10.864;2023-03-20T09:02:06;39.31;36.69;43.14;;
66747;Laerm;53658;50.742;10.864;2023-03-20T09:04:32;39.34;36.69;46.66;;
66747;Laerm;53658;50.742;10.864;2023-03-20T09:06:57;39.49;36.45;43.29;;
66747;Laerm;53658;50.742;10.864;2023-03-20T09:09:25;39.43;36.69;44.11;;
66747;Laerm;53658;50.742;10.864;2023-03-20T09:11:57;39.52;36.91;43.77;;
66747;Laerm;53658;50.742;10.864;2023-03-20T09:14:24;39.43;36.45;42.29;;
66747;Laerm;53658;50.742;10.864;2023-03-20T09:16:50;39.43;36.45;41.53;;
66747;Laerm;53658;50.742;10.864;2023-03-20T09:19:17;39.57;36.91;42.65;;
66747;Laerm;53658;50.742;10.864;2023-03-20T09:21:43;39.53;36.69;42.71;;
66747;Laerm;53658;50.742;10.864;2023-03-20T09:24:10;39.39;36.20;41.68;;
66747;Laerm;53658;50.742;10.864;2023-03-20T09:26:37;39.34;36.20;42.09;;
66747;Laerm;53658;50.742;10.864;2023-03-20T09:29:04;39.30;36.45;46.50;;
66747;Laerm;53658;50.742;10.864;2023-03-20T09:31:30;39.29;36.69;41.46;;
66747;Laerm;53658;50.742;10.864;2023-03-20T09:33:56;39.39;36.69;52.20;;
66747;Laerm;53658;50.742;10.864;2023-03-20T09:36:22;39.24;35.66;44.69;;
66747;Laerm;53658;50.742;10.864;2023-03-20T09:38:47;39.32;36.91;41.30;;
66747;Laerm;53658;50.742;10.864;2023-03-20T09:41:19;39.33;36.45;41.30;;
66747;Laerm;53658;50.742;10.864;2023-03-20T09:55:34;39.39;36.69;41.30;;
66747;Laerm;53658;50.742;10.864;2023-03-20T09:58:14;39.35;37.12;41.46;;
66747;Laerm;53658;50.742;10.864;2023-03-20T10:00:45;39.36;36.69;41.14;;
66747;Laerm;53658;50.742;10.864;2023-03-20T10:03:21;39.34;36.45;41.61;;
66747;Laerm;53658;50.742;10.864;2023-03-20T10:05:56;39.36;36.45;41.22;;
66747;Laerm;53658;50.742;10.864;2023-03-20T10:08:32;39.34;36.91;41.30;;
66747;Laerm;53658;50.742;10.864;2023-03-20T10:19:32;39.37;36.91;41.53;;
66747;Laerm;53658;50.742;10.864;2023-03-20T10:24:43;39.38;36.69;41.53;;
66747;Laerm;53658;50.742;10.864;2023-03-20T10:27:24;39.35;36.69;41.38;;
66747;Laerm;53658;50.742;10.864;2023-03-20T10:30:02;39.41;36.56;42.65;;
66747;Laerm;53658;50.742;10.864;2023-03-20T10:35:26;39.33;36.69;41.53;;
66747;Laerm;53658;50.742;10.864;2023-03-20T10:38:00;39.35;36.69;41.68;;
66747;Laerm;53658;50.742;10.864;2023-03-20T10:40:50;39.38;36.69;41.75;;
66747;Laerm;53658;50.742;10.864;2023-03-20T10:43:32;39.34;36.45;41.38;;
66747;Laerm;53658;50.742;10.864;2023-03-20T10:46:06;39.33;36.56;41.53;;
66747;Laerm;53658;50.742;10.864;2023-03-20T10:48:48;39.30;36.69;41.46;;
66747;Laerm;53658;50.742;10.864;2023-03-20T10:51:17;39.35;36.91;41.30;;
66747;Laerm;53658;50.742;10.864;2023-03-20T10:53:49;39.53;36.91;45.23;;
66747;Laerm;53658;50.742;10.864;2023-03-20T10:56:37;39.36;36.69;41.96;;
66747;Laerm;53658;50.742;10.864;2023-03-20T10:59:42;39.37;36.91;41.30;;
66747;Laerm;53658;50.742;10.864;2023-03-20T11:02:11;39.36;36.69;41.46;;
66747;Laerm;53658;50.742;10.864;2023-03-20T11:04:37;39.34;36.91;41.30;;
66747;Laerm;53658;50.742;10.864;2023-03-20T11:07:32;39.34;36.91;41.46;;
66747;Laerm;53658;50.742;10.864;2023-03-20T11:10:17;39.33;36.91;41.38;;
66747;Laerm;53658;50.742;10.864;2023-03-20T11:12:46;39.37;36.91;41.22;;
66747;Laerm;53658;50.742;10.864;2023-03-20T11:18:03;39.91;37.12;44.76;;
66747;Laerm;53658;50.742;10.864;2023-03-20T11:20:45;40.59;36.91;55.64;;
66747;Laerm;53658;50.742;10.864;2023-03-20T11:23:35;41.35;36.69;67.71;;
66747;Laerm;53658;50.742;10.864;2023-03-20T11:26:06;40.57;37.12;54.82;;
66747;Laerm;53658;50.742;10.864;2023-03-20T11:28:41;40.86;36.45;64.62;;
66747;Laerm;53658;50.742;10.864;2023-03-20T11:39:30;40.27;35.94;60.19;;
66747;Laerm;53658;50.742;10.864;2023-03-20T11:42:01;39.94;36.45;43.89;;
66747;Laerm;53658;50.742;10.864;2023-03-20T11:44:32;40.24;36.69;57.54;;
66747;Laerm;53658;50.742;10.864;2023-03-20T11:47:00;39.80;36.20;49.39;;
66747;Laerm;53658;50.742;10.864;2023-03-20T11:49:28;40.39;36.20;64.37;;
66747;Laerm;53658;50.742;10.864;2023-03-20T11:52:00;40.04;35.94;52.24;;
66747;Laerm;53658;50.742;10.864;2023-03-20T11:54:28;40.17;36.69;49.43;;
66747;Laerm;53658;50.742;10.864;2023-03-20T11:56:59;40.04;36.45;49.20;;
66747;Laerm;53658;50.742;10.864;2023-03-20T11:59:31;39.87;36.45;47.50;;
66747;Laerm;53658;50.742;10.864;2023-03-20T12:02:00;40.07;35.66;44.90;;
66747;Laerm;53658;50.742;10.864;2023-03-20T12:04:32;40.32;35.04;52.06;;
66747;Laerm;53658;50.742;10.864;2023-03-20T12:07:23;40.10;35.94;48.96;;
66747;Laerm;53658;50.742;10.864;2023-03-20T12:12:47;40.14;35.94;45.39;;
66747;Laerm;53658;50.742;10.864;2023-03-20T12:15:34;40.27;35.66;55.35;;
66747;Laerm;53658;50.742;10.864;2023-03-20T12:21:38;40.09;35.94;55.67;;
66747;Laerm;53658;50.742;10.864;2023-03-20T12:24:16;40.15;34.69;49.71;;
66747;Laerm;53658;50.742;10.864;2023-03-20T12:27:08;39.88;35.66;47.08;;
66747;Laerm;53658;50.742;10.864;2023-03-20T12:32:27;39.87;36.69;51.13;;
66747;Laerm;53658;50.742;10.864;2023-03-20T12:35:08;39.89;36.20;58.30;;
66747;Laerm;53658;50.742;10.864;2023-03-20T12:37:35;40.29;36.45;52.54;;
66747;Laerm;53658;50.742;10.864;2023-03-20T12:40:02;40.28;36.91;48.95;;
66747;Laerm;53658;50.742;10.864;2023-03-20T12:50:41;40.00;36.69;61.51;;
66747;Laerm;53658;50.742;10.864;2023-03-20T13:07:37;39.47;36.45;41.68;;
66747;Laerm;53658;50.742;10.864;2023-03-20T13:10:19;39.51;36.69;41.75;;
66747;Laerm;53658;50.742;10.864;2023-03-20T13:18:37;39.26;36.69;41.53;;
66747;Laerm;53658;50.742;10.864;2023-03-20T13:21:12;39.25;36.45;41.53;;
66747;Laerm;53658;50.742;10.864;2023-03-20T13:23:50;39.29;36.69;41.53;;
66747;Laerm;53658;50.742;10.864;2023-03-20T13:26:30;39.26;36.45;41.38;;
66747;Laerm;53658;50.742;10.864;2023-03-20T13:29:41;39.35;36.69;41.82;;
66747;Laerm;53658;50.742;10.864;2023-03-20T13:32:13;39.34;36.69;41.38;;
66747;Laerm;53658;50.742;10.864;2023-03-20T13:40:40;39.68;36.91;41.96;;
66747;Laerm;53658;50.742;10.864;2023-03-20T13:45:39;39.63;37.12;41.46;;
66747;Laerm;53658;50.742;10.864;2023-03-20T13:50:50;39.64;37.32;41.68;;
66747;Laerm;53658;50.742;10.864;2023-03-20T14:02:06;39.71;37.52;43.34;;
66747;Laerm;53658;50.742;10.864;2023-03-20T14:04:29;39.65;37.52;41.38;;
66747;Laerm;53658;50.742;10.864;2023-03-20T14:06:57;39.65;37.52;41.53;;
66747;Laerm;53658;50.742;10.864;2023-03-20T14:09:42;39.68;37.70;41.53;;
66747;Laerm;53658;50.742;10.864;2023-03-20T14:12:12;39.70;37.70;42.35;;
66747;Laerm;53658;50.742;10.864;2023-03-20T14:17:27;39.85;37.52;48.05;;
66747;Laerm;53658;50.742;10.864;2023-03-20T14:19:55;39.67;37.32;41.53;;
66747;Laerm;53658;50.742;10.864;2023-03-20T14:22:27;39.75;37.70;42.47;;
66747;Laerm;53658;50.742;10.864;2023-03-20T14:24:55;39.77;37.70;41.89;;
66747;Laerm;53658;50.742;10.864;2023-03-20T14:27:25;39.84;37.32;42.42;;
66747;Laerm;53658;50.742;10.864;2023-03-20T14:29:51;39.82;37.52;41.61;;
66747;Laerm;53658;50.742;10.864;2023-03-20T14:34:58;39.77;37.32;41.53;;
66747;Laerm;53658;50.742;10.864;2023-03-20T14:37:26;39.77;37.88;42.42;;
66747;Laerm;53658;50.742;10.864;2023-03-20T14:40:05;39.76;37.70;43.81;;
66747;Laerm;53658;50.742;10.864;2023-03-20T14:42:54;39.75;37.88;42.22;;
66747;Laerm;53658;50.742;10.864;2023-03-20T14:45:36;39.84;37.88;42.03;;
66747;Laerm;53658;50.742;10.864;2023-03-20T14:51:13;39.92;37.88;41.75;;
66747;Laerm;53658;50.742;10.864;2023-03-20T14:53:55;39.92;37.52;41.53;;
66747;Laerm;53658;50.742;10.864;2023-03-20T14:56:32;39.88;37.88;41.61;;
66747;Laerm;53658;50.742;10.864;2023-03-20T14:59:04;39.92;37.70;41.68;;
66747;Laerm;53658;50.742;10.864;2023-03-20T15:06:54;39.77;37.70;41.38;;
66747;Laerm;53658;50.742;10.864;2023-03-20T15:09:24;39.77;37.52;41.53;;
66747;Laerm;53658;50.742;10.864;2023-03-20T15:11:53;39.79;37.70;42.41;;
66747;Laerm;53658;50.742;10.864;2023-03-20T15:14:26;39.79;37.32;41.38;;
66747;Laerm;53658;50.742;10.864;2023-03-20T15:17:01;39.68;37.70;41.46;;
66747;Laerm;53658;50.742;10.864;2023-03-20T15:19:28;39.67;37.52;41.46;;
66747;Laerm;53658;50.742;10.864;2023-03-20T15:21:54;39.69;37.12;43.44;;
66747;Laerm;53658;50.742;10.864;2023-03-20T15:24:23;39.61;37.32;41.38;;
66747;Laerm;53658;50.742;10.864;2023-03-20T15:26:53;39.62;37.12;41.38;;
66747;Laerm;53658;50.742;10.864;2023-03-20T15:29:19;39.58;37.32;41.30;;
66747;Laerm;53658;50.742;10.864;2023-03-20T15:31:53;39.53;36.69;41.38;;
66747;Laerm;53658;50.742;10.864;2023-03-20T15:34:30;39.51;37.32;41.38;;
66747;Laerm;53658;50.742;10.864;2023-03-20T15:37:01;39.48;37.32;41.38;;
66747;Laerm;53658;50.742;10.864;2023-03-20T15:39:29;39.48;37.32;41.53;;
66747;Laerm;53658;50.742;10.864;2023-03-20T15:42:12;39.47;37.12;41.46;;
66747;Laerm;53658;50.742;10.864;2023-03-20T15:44:42;39.48;37.32;41.22;;
66747;Laerm;53658;50.742;10.864;2023-03-20T15:49:34;39.49;37.12;41.14;;
66747;Laerm;53658;50.742;10.864;2023-03-20T15:52:06;39.43;36.45;41.22;;
66747;Laerm;53658;50.742;10.864;2023-03-20T15:54:34;39.46;37.32;41.53;;
66747;Laerm;53658;50.742;10.864;2023-03-20T15:57:02;39.50;37.52;41.38;;
66747;Laerm;53658;50.742;10.864;2023-03-20T15:59:32;39.47;36.91;41.46;;
66747;Laerm;53658;50.742;10.864;2023-03-20T16:01:59;39.42;37.17;41.38;;
66747;Laerm;53658;50.742;10.864;2023-03-20T16:04:27;39.39;36.69;41.68;;
66747;Laerm;53658;50.742;10.864;2023-03-20T16:06:56;39.42;36.91;41.22;;
66747;Laerm;53658;50.742;10.864;2023-03-20T16:09:24;39.34;37.12;41.26;;
66747;Laerm;53658;50.742;10.864;2023-03-20T16:12:01;39.29;36.91;41.14;;
66747;Laerm;53658;50.742;10.864;2023-03-20T16:14:30;39.27;36.69;41.30;;
66747;Laerm;53658;50.742;10.864;2023-03-20T16:17:00;39.29;36.69;41.22;;
66747;Laerm;53658;50.742;10.864;2023-03-20T16:19:28;39.25;36.45;41.14;;
66747;Laerm;53658;50.742;10.864;2023-03-20T16:22:11;39.23;36.91;41.14;;
66747;Laerm;53658;50.742;10.864;2023-03-20T16:24:39;39.20;36.91;41.22;;
66747;Laerm;53658;50.742;10.864;2023-03-20T16:27:08;39.19;36.45;41.30;;
66747;Laerm;53658;50.742;10.864;2023-03-20T16:29:35;39.18;36.45;41.14;;